sensor_id;sensor_type;location;lat;lon;timestamp;P1;durP1;ratioP1;P2;durP2;ratioP2
22072;SDS011;11202;50.916;4.698;2022-12-08T00:04:37;30.27;;;16.27;;
22072;SDS011;11202;50.916;4.698;2022-12-08T00:07:22;32.05;;;17.13;;
22072;SDS011;11202;50.916;4.698;2022-12-08T00:54:19;56.08;;;28.55;;
22072;SDS011;11202;50.916;4.698;2022-12-08T00:56:46;52.58;;;28.27;;
22072;SDS011;11202;50.916;4.698;2022-12-08T03:17:10;57.10;;;28.45;;
22072;SDS011;11202;50.916;4.698;2022-12-08T03:19:38;55.88;;;28.45;;
22072;SDS011;11202;50.916;4.698;2022-12-08T03:22:07;63.75;;;31.08;;
22072;SDS011;11202;50.916;4.698;2022-12-08T04:05:19;46.92;;;24.50;;
22072;SDS011;11202;50.916;4.698;2022-12-08T05:13:20;36.80;;;18.48;;
22072;SDS011;11202;50.916;4.698;2022-12-08T05:28:58;35.10;;;17.35;;
22072;SDS011;11202;50.916;4.698;2022-12-08T05:31:24;36.33;;;20.80;;
22072;SDS011;11202;50.916;4.698;2022-12-08T05:33:50;40.70;;;21.92;;
22072;SDS011;11202;50.916;4.698;2022-12-08T05:36:16;43.20;;;21.98;;
22072;SDS011;11202;50.916;4.698;2022-12-08T05:42:10;35.67;;;20.60;;
22072;SDS011;11202;50.916;4.698;2022-12-08T05:48:04;50.33;;;24.02;;
22072;SDS011;11202;50.916;4.698;2022-12-08T05:53:57;48.38;;;25.33;;
22072;SDS011;11202;50.916;4.698;2022-12-08T06:53:55;36.65;;;19.35;;
22072;SDS011;11202;50.916;4.698;2022-12-08T06:56:20;38.38;;;19.73;;
22072;SDS011;11202;50.916;4.698;2022-12-08T06:58:48;37.22;;;19.45;;
22072;SDS011;11202;50.916;4.698;2022-12-08T07:01:18;36.08;;;18.85;;
22072;SDS011;11202;50.916;4.698;2022-12-08T07:10:32;35.85;;;17.48;;
22072;SDS011;11202;50.916;4.698;2022-12-08T07:12:58;40.53;;;19.00;;
22072;SDS011;11202;50.916;4.698;2022-12-08T07:15:33;38.55;;;20.33;;
22072;SDS011;11202;50.916;4.698;2022-12-08T07:17:58;42.92;;;19.95;;
22072;SDS011;11202;50.916;4.698;2022-12-08T07:20:24;33.53;;;18.95;;
22072;SDS011;11202;50.916;4.698;2022-12-08T07:22:52;38.90;;;20.73;;
22072;SDS011;11202;50.916;4.698;2022-12-08T07:25:18;38.55;;;18.75;;
22072;SDS011;11202;50.916;4.698;2022-12-08T07:27:44;35.90;;;19.98;;
22072;SDS011;11202;50.916;4.698;2022-12-08T07:33:56;32.33;;;16.40;;
22072;SDS011;11202;50.916;4.698;2022-12-08T07:36:22;34.53;;;18.75;;
22072;SDS011;11202;50.916;4.698;2022-12-08T07:38:48;32.08;;;16.23;;
22072;SDS011;11202;50.916;4.698;2022-12-08T07:41:21;32.78;;;17.35;;
22072;SDS011;11202;50.916;4.698;2022-12-08T07:43:48;32.38;;;16.42;;
22072;SDS011;11202;50.916;4.698;2022-12-08T07:46:17;35.00;;;17.95;;
22072;SDS011;11202;50.916;4.698;2022-12-08T07:48:44;30.50;;;15.13;;
22072;SDS011;11202;50.916;4.698;2022-12-08T07:51:11;40.38;;;16.15;;
22072;SDS011;11202;50.916;4.698;2022-12-08T07:57:18;26.55;;;14.15;;
22072;SDS011;11202;50.916;4.698;2022-12-08T07:59:48;30.70;;;15.07;;
22072;SDS011;11202;50.916;4.698;2022-12-08T08:02:17;31.77;;;15.77;;
22072;SDS011;11202;50.916;4.698;2022-12-08T08:04:48;36.85;;;15.90;;
22072;SDS011;11202;50.916;4.698;2022-12-08T08:07:14;32.40;;;16.90;;
22072;SDS011;11202;50.916;4.698;2022-12-08T08:16:16;27.15;;;14.55;;
22072;SDS011;11202;50.916;4.698;2022-12-08T08:18:42;27.60;;;14.27;;
22072;SDS011;11202;50.916;4.698;2022-12-08T08:21:15;25.85;;;13.35;;
22072;SDS011;11202;50.916;4.698;2022-12-08T08:23:43;25.55;;;14.63;;
22072;SDS011;11202;50.916;4.698;2022-12-08T08:29:38;27.48;;;14.45;;
22072;SDS011;11202;50.916;4.698;2022-12-08T08:32:03;25.58;;;13.77;;
22072;SDS011;11202;50.916;4.698;2022-12-08T08:34:29;28.70;;;14.43;;
22072;SDS011;11202;50.916;4.698;2022-12-08T08:36:55;30.33;;;16.20;;
22072;SDS011;11202;50.916;4.698;2022-12-08T08:39:20;32.83;;;14.18;;
22072;SDS011;11202;50.916;4.698;2022-12-08T08:41:46;27.27;;;14.90;;
22072;SDS011;11202;50.916;4.698;2022-12-08T08:44:12;27.70;;;14.57;;
22072;SDS011;11202;50.916;4.698;2022-12-08T08:46:39;30.67;;;15.80;;
22072;SDS011;11202;50.916;4.698;2022-12-08T08:49:20;25.30;;;14.40;;
22072;SDS011;11202;50.916;4.698;2022-12-08T08:51:46;34.63;;;15.57;;
22072;SDS011;11202;50.916;4.698;2022-12-08T08:54:14;33.28;;;16.08;;
22072;SDS011;11202;50.916;4.698;2022-12-08T08:56:40;30.33;;;13.90;;
22072;SDS011;11202;50.916;4.698;2022-12-08T08:59:05;27.15;;;16.15;;
22072;SDS011;11202;50.916;4.698;2022-12-08T09:01:33;30.92;;;16.23;;
22072;SDS011;11202;50.916;4.698;2022-12-08T09:03:59;31.58;;;15.90;;
22072;SDS011;11202;50.916;4.698;2022-12-08T09:06:25;28.73;;;15.43;;
22072;SDS011;11202;50.916;4.698;2022-12-08T09:08:54;31.35;;;15.48;;
22072;SDS011;11202;50.916;4.698;2022-12-08T09:11:20;28.85;;;14.27;;
22072;SDS011;11202;50.916;4.698;2022-12-08T09:13:47;30.17;;;14.60;;
22072;SDS011;11202;50.916;4.698;2022-12-08T09:16:14;29.92;;;16.13;;
22072;SDS011;11202;50.916;4.698;2022-12-08T09:18:40;27.23;;;16.05;;
22072;SDS011;11202;50.916;4.698;2022-12-08T09:21:07;28.45;;;16.08;;
22072;SDS011;11202;50.916;4.698;2022-12-08T09:23:40;31.08;;;16.10;;
22072;SDS011;11202;50.916;4.698;2022-12-08T09:26:09;30.92;;;13.60;;
22072;SDS011;11202;50.916;4.698;2022-12-08T09:28:34;33.85;;;17.27;;
22072;SDS011;11202;50.916;4.698;2022-12-08T09:31:00;33.92;;;16.40;;
22072;SDS011;11202;50.916;4.698;2022-12-08T09:33:26;36.17;;;18.05;;
22072;SDS011;11202;50.916;4.698;2022-12-08T09:35:52;34.05;;;18.10;;
22072;SDS011;11202;50.916;4.698;2022-12-08T09:38:17;28.73;;;16.30;;
22072;SDS011;11202;50.916;4.698;2022-12-08T09:40:51;28.83;;;16.67;;
22072;SDS011;11202;50.916;4.698;2022-12-08T09:43:32;34.08;;;18.42;;
22072;SDS011;11202;50.916;4.698;2022-12-08T09:46:09;38.03;;;17.75;;
22072;SDS011;11202;50.916;4.698;2022-12-08T09:48:41;37.03;;;17.30;;
22072;SDS011;11202;50.916;4.698;2022-12-08T09:51:15;31.92;;;17.48;;
22072;SDS011;11202;50.916;4.698;2022-12-08T09:53:48;32.67;;;15.40;;
22072;SDS011;11202;50.916;4.698;2022-12-08T09:56:20;34.78;;;18.23;;
22072;SDS011;11202;50.916;4.698;2022-12-08T09:59:00;36.38;;;18.88;;
22072;SDS011;11202;50.916;4.698;2022-12-08T10:01:31;37.67;;;17.85;;
22072;SDS011;11202;50.916;4.698;2022-12-08T10:03:58;33.05;;;18.17;;
22072;SDS011;11202;50.916;4.698;2022-12-08T10:06:32;33.53;;;17.40;;
22072;SDS011;11202;50.916;4.698;2022-12-08T10:09:22;23.25;;;12.45;;
22072;SDS011;11202;50.916;4.698;2022-12-08T10:17:21;35.88;;;18.75;;
22072;SDS011;11202;50.916;4.698;2022-12-08T10:19:52;38.00;;;18.77;;
22072;SDS011;11202;50.916;4.698;2022-12-08T10:22:30;31.23;;;16.05;;
22072;SDS011;11202;50.916;4.698;2022-12-08T10:27:40;31.00;;;16.23;;
22072;SDS011;11202;50.916;4.698;2022-12-08T10:30:10;36.10;;;17.42;;
22072;SDS011;11202;50.916;4.698;2022-12-08T10:32:37;32.63;;;16.30;;
22072;SDS011;11202;50.916;4.698;2022-12-08T10:35:09;39.85;;;17.60;;
22072;SDS011;11202;50.916;4.698;2022-12-08T10:37:36;31.02;;;16.23;;
22072;SDS011;11202;50.916;4.698;2022-12-08T10:40:13;30.38;;;16.50;;
22072;SDS011;11202;50.916;4.698;2022-12-08T10:42:42;35.20;;;15.18;;
22072;SDS011;11202;50.916;4.698;2022-12-08T10:45:16;25.38;;;12.43;;
22072;SDS011;11202;50.916;4.698;2022-12-08T10:47:43;29.05;;;12.82;;
22072;SDS011;11202;50.916;4.698;2022-12-08T10:50:22;26.67;;;15.65;;
22072;SDS011;11202;50.916;4.698;2022-12-08T10:53:44;23.77;;;13.23;;
22072;SDS011;11202;50.916;4.698;2022-12-08T11:01:11;31.15;;;16.50;;
22072;SDS011;11202;50.916;4.698;2022-12-08T11:04:00;31.48;;;15.23;;
22072;SDS011;11202;50.916;4.698;2022-12-08T11:09:06;25.73;;;13.98;;
22072;SDS011;11202;50.916;4.698;2022-12-08T11:14:21;30.45;;;13.20;;
22072;SDS011;11202;50.916;4.698;2022-12-08T11:17:22;25.17;;;13.95;;
22072;SDS011;11202;50.916;4.698;2022-12-08T11:20:02;27.77;;;12.68;;
22072;SDS011;11202;50.916;4.698;2022-12-08T11:22:45;25.85;;;14.50;;
22072;SDS011;11202;50.916;4.698;2022-12-08T11:25:24;29.15;;;13.35;;
22072;SDS011;11202;50.916;4.698;2022-12-08T11:28:00;27.52;;;13.48;;
22072;SDS011;11202;50.916;4.698;2022-12-08T11:30:40;28.30;;;13.25;;
22072;SDS011;11202;50.916;4.698;2022-12-08T11:33:23;27.90;;;12.38;;
22072;SDS011;11202;50.916;4.698;2022-12-08T11:36:25;22.15;;;11.25;;
22072;SDS011;11202;50.916;4.698;2022-12-08T11:38:45;22.45;;;10.80;;
22072;SDS011;11202;50.916;4.698;2022-12-08T11:41:13;26.30;;;11.25;;
22072;SDS011;11202;50.916;4.698;2022-12-08T11:43:49;24.17;;;12.77;;
22072;SDS011;11202;50.916;4.698;2022-12-08T11:46:34;21.02;;;11.13;;
22072;SDS011;11202;50.916;4.698;2022-12-08T11:49:08;25.08;;;11.15;;
22072;SDS011;11202;50.916;4.698;2022-12-08T11:51:56;25.20;;;12.15;;
22072;SDS011;11202;50.916;4.698;2022-12-08T11:54:37;26.10;;;11.73;;
22072;SDS011;11202;50.916;4.698;2022-12-08T11:59:38;20.63;;;10.15;;
22072;SDS011;11202;50.916;4.698;2022-12-08T12:02:17;22.40;;;10.70;;
22072;SDS011;11202;50.916;4.698;2022-12-08T12:04:51;18.92;;;9.25;;
22072;SDS011;11202;50.916;4.698;2022-12-08T12:07:36;20.23;;;8.70;;
22072;SDS011;11202;50.916;4.698;2022-12-08T12:13:29;20.52;;;9.23;;
22072;SDS011;11202;50.916;4.698;2022-12-08T12:18:59;18.08;;;8.98;;
22072;SDS011;11202;50.916;4.698;2022-12-08T12:21:36;19.15;;;8.75;;
22072;SDS011;11202;50.916;4.698;2022-12-08T12:29:58;19.67;;;9.25;;
22072;SDS011;11202;50.916;4.698;2022-12-08T12:35:34;17.80;;;8.48;;
22072;SDS011;11202;50.916;4.698;2022-12-08T12:38:29;16.33;;;8.77;;
22072;SDS011;11202;50.916;4.698;2022-12-08T12:41:51;13.52;;;7.57;;
22072;SDS011;11202;50.916;4.698;2022-12-08T12:44:51;21.23;;;8.50;;
22072;SDS011;11202;50.916;4.698;2022-12-08T12:47:48;19.90;;;9.02;;
22072;SDS011;11202;50.916;4.698;2022-12-08T13:00:47;17.27;;;8.00;;
22072;SDS011;11202;50.916;4.698;2022-12-08T13:03:15;19.33;;;8.73;;
22072;SDS011;11202;50.916;4.698;2022-12-08T13:05:48;17.75;;;8.75;;
22072;SDS011;11202;50.916;4.698;2022-12-08T13:11:06;19.52;;;9.35;;
22072;SDS011;11202;50.916;4.698;2022-12-08T13:13:34;22.73;;;9.65;;
22072;SDS011;11202;50.916;4.698;2022-12-08T13:16:19;17.58;;;8.70;;
22072;SDS011;11202;50.916;4.698;2022-12-08T13:18:49;16.05;;;9.25;;
22072;SDS011;11202;50.916;4.698;2022-12-08T13:21:37;16.88;;;10.02;;
22072;SDS011;11202;50.916;4.698;2022-12-08T13:26:44;25.75;;;9.95;;
22072;SDS011;11202;50.916;4.698;2022-12-08T13:29:21;16.95;;;10.02;;
22072;SDS011;11202;50.916;4.698;2022-12-08T13:31:54;22.05;;;10.15;;
22072;SDS011;11202;50.916;4.698;2022-12-08T13:36:59;21.25;;;10.73;;
22072;SDS011;11202;50.916;4.698;2022-12-08T13:44:58;16.95;;;8.27;;
22072;SDS011;11202;50.916;4.698;2022-12-08T13:47:43;15.07;;;8.65;;
22072;SDS011;11202;50.916;4.698;2022-12-08T13:50:18;17.58;;;9.25;;
22072;SDS011;11202;50.916;4.698;2022-12-08T13:52:50;18.65;;;10.23;;
22072;SDS011;11202;50.916;4.698;2022-12-08T13:55:38;16.70;;;9.77;;
22072;SDS011;11202;50.916;4.698;2022-12-08T13:58:14;19.00;;;9.20;;
22072;SDS011;11202;50.916;4.698;2022-12-08T14:00:58;17.45;;;9.88;;
22072;SDS011;11202;50.916;4.698;2022-12-08T14:03:24;17.00;;;9.27;;
22072;SDS011;11202;50.916;4.698;2022-12-08T14:05:50;15.50;;;9.15;;
22072;SDS011;11202;50.916;4.698;2022-12-08T14:08:30;18.55;;;9.25;;
22072;SDS011;11202;50.916;4.698;2022-12-08T14:11:02;20.67;;;9.45;;
22072;SDS011;11202;50.916;4.698;2022-12-08T14:13:30;19.33;;;6.35;;
22072;SDS011;11202;50.916;4.698;2022-12-08T14:15:56;6.20;;;3.10;;
22072;SDS011;11202;50.916;4.698;2022-12-08T14:18:26;3.95;;;2.03;;
22072;SDS011;11202;50.916;4.698;2022-12-08T14:20:58;5.88;;;2.10;;
22072;SDS011;11202;50.916;4.698;2022-12-08T14:23:28;6.20;;;2.10;;
22072;SDS011;11202;50.916;4.698;2022-12-08T14:25:54;8.48;;;2.17;;
22072;SDS011;11202;50.916;4.698;2022-12-08T14:28:20;5.82;;;2.10;;
22072;SDS011;11202;50.916;4.698;2022-12-08T14:30:47;7.07;;;2.22;;
22072;SDS011;11202;50.916;4.698;2022-12-08T14:33:14;6.18;;;2.00;;
22072;SDS011;11202;50.916;4.698;2022-12-08T14:35:48;4.47;;;2.10;;
22072;SDS011;11202;50.916;4.698;2022-12-08T14:38:16;5.50;;;2.30;;
22072;SDS011;11202;50.916;4.698;2022-12-08T14:43:32;3.88;;;1.80;;
22072;SDS011;11202;50.916;4.698;2022-12-08T14:45:59;4.40;;;2.38;;
22072;SDS011;11202;50.916;4.698;2022-12-08T14:51:06;5.60;;;2.22;;
22072;SDS011;11202;50.916;4.698;2022-12-08T14:53:55;3.38;;;2.03;;
22072;SDS011;11202;50.916;4.698;2022-12-08T15:01:35;6.53;;;2.45;;
22072;SDS011;11202;50.916;4.698;2022-12-08T15:04:06;4.38;;;2.35;;
22072;SDS011;11202;50.916;4.698;2022-12-08T15:06:32;3.83;;;2.72;;
22072;SDS011;11202;50.916;4.698;2022-12-08T15:09:12;4.68;;;3.05;;
22072;SDS011;11202;50.916;4.698;2022-12-08T15:11:58;6.72;;;3.35;;
22072;SDS011;11202;50.916;4.698;2022-12-08T15:14:28;6.18;;;3.17;;
22072;SDS011;11202;50.916;4.698;2022-12-08T15:16:59;10.52;;;3.50;;
22072;SDS011;11202;50.916;4.698;2022-12-08T15:19:29;7.72;;;4.10;;
22072;SDS011;11202;50.916;4.698;2022-12-08T15:22:16;8.63;;;3.33;;
22072;SDS011;11202;50.916;4.698;2022-12-08T15:24:45;4.45;;;3.20;;
22072;SDS011;11202;50.916;4.698;2022-12-08T15:27:15;5.05;;;3.10;;
22072;SDS011;11202;50.916;4.698;2022-12-08T15:29:43;4.22;;;2.72;;
22072;SDS011;11202;50.916;4.698;2022-12-08T15:32:10;7.85;;;3.58;;
22072;SDS011;11202;50.916;4.698;2022-12-08T15:34:36;6.13;;;2.97;;
22072;SDS011;11202;50.916;4.698;2022-12-08T15:37:02;5.63;;;3.40;;
22072;SDS011;11202;50.916;4.698;2022-12-08T15:39:40;5.45;;;3.50;;
22072;SDS011;11202;50.916;4.698;2022-12-08T15:42:08;8.20;;;3.90;;
22072;SDS011;11202;50.916;4.698;2022-12-08T15:44:36;4.45;;;3.53;;
22072;SDS011;11202;50.916;4.698;2022-12-08T15:47:02;4.78;;;3.55;;
22072;SDS011;11202;50.916;4.698;2022-12-08T15:49:28;8.15;;;3.90;;
22072;SDS011;11202;50.916;4.698;2022-12-08T15:51:54;5.88;;;3.85;;
22072;SDS011;11202;50.916;4.698;2022-12-08T15:54:20;6.45;;;3.92;;
22072;SDS011;11202;50.916;4.698;2022-12-08T15:56:48;7.32;;;4.35;;
22072;SDS011;11202;50.916;4.698;2022-12-08T15:59:16;5.72;;;4.20;;
22072;SDS011;11202;50.916;4.698;2022-12-08T16:01:44;8.80;;;3.97;;
22072;SDS011;11202;50.916;4.698;2022-12-08T16:04:14;6.70;;;5.20;;
22072;SDS011;11202;50.916;4.698;2022-12-08T16:06:41;7.82;;;5.03;;
22072;SDS011;11202;50.916;4.698;2022-12-08T16:11:41;7.72;;;5.25;;
22072;SDS011;11202;50.916;4.698;2022-12-08T16:14:25;8.80;;;5.22;;
22072;SDS011;11202;50.916;4.698;2022-12-08T16:16:51;11.18;;;5.97;;
22072;SDS011;11202;50.916;4.698;2022-12-08T16:19:17;13.50;;;7.25;;
22072;SDS011;11202;50.916;4.698;2022-12-08T16:21:42;11.15;;;7.22;;
22072;SDS011;11202;50.916;4.698;2022-12-08T16:24:08;13.75;;;7.63;;
22072;SDS011;11202;50.916;4.698;2022-12-08T16:26:34;9.63;;;6.95;;
22072;SDS011;11202;50.916;4.698;2022-12-08T16:28:59;12.23;;;8.05;;
22072;SDS011;11202;50.916;4.698;2022-12-08T16:31:25;15.55;;;8.40;;
22072;SDS011;11202;50.916;4.698;2022-12-08T16:33:51;15.43;;;7.63;;
22072;SDS011;11202;50.916;4.698;2022-12-08T16:36:17;12.68;;;7.70;;
22072;SDS011;11202;50.916;4.698;2022-12-08T16:38:42;14.55;;;8.77;;
22072;SDS011;11202;50.916;4.698;2022-12-08T16:41:13;12.38;;;8.30;;
22072;SDS011;11202;50.916;4.698;2022-12-08T16:44:02;18.13;;;10.40;;
22072;SDS011;11202;50.916;4.698;2022-12-08T16:46:29;21.35;;;11.35;;
22072;SDS011;11202;50.916;4.698;2022-12-08T16:48:55;21.98;;;10.80;;
22072;SDS011;11202;50.916;4.698;2022-12-08T16:51:22;17.05;;;11.48;;
22072;SDS011;11202;50.916;4.698;2022-12-08T16:53:48;18.27;;;11.50;;
22072;SDS011;11202;50.916;4.698;2022-12-08T16:56:18;17.63;;;12.45;;
22072;SDS011;11202;50.916;4.698;2022-12-08T16:58:45;19.70;;;12.48;;
22072;SDS011;11202;50.916;4.698;2022-12-08T17:01:11;19.20;;;13.40;;
22072;SDS011;11202;50.916;4.698;2022-12-08T17:03:40;19.77;;;13.27;;
22072;SDS011;11202;50.916;4.698;2022-12-08T17:06:10;18.35;;;12.68;;
22072;SDS011;11202;50.916;4.698;2022-12-08T17:08:38;18.00;;;12.55;;
22072;SDS011;11202;50.916;4.698;2022-12-08T17:11:05;24.63;;;13.63;;
22072;SDS011;11202;50.916;4.698;2022-12-08T17:13:31;22.85;;;14.02;;
22072;SDS011;11202;50.916;4.698;2022-12-08T17:16:00;21.30;;;15.23;;
22072;SDS011;11202;50.916;4.698;2022-12-08T17:18:31;21.13;;;14.05;;
22072;SDS011;11202;50.916;4.698;2022-12-08T17:20:57;20.17;;;12.93;;
22072;SDS011;11202;50.916;4.698;2022-12-08T17:23:22;18.85;;;13.95;;
22072;SDS011;11202;50.916;4.698;2022-12-08T17:25:58;19.77;;;15.02;;
22072;SDS011;11202;50.916;4.698;2022-12-08T17:28:24;20.88;;;15.02;;
22072;SDS011;11202;50.916;4.698;2022-12-08T17:31:00;21.77;;;16.45;;
22072;SDS011;11202;50.916;4.698;2022-12-08T17:33:27;31.63;;;17.40;;
22072;SDS011;11202;50.916;4.698;2022-12-08T17:35:53;26.13;;;18.08;;
22072;SDS011;11202;50.916;4.698;2022-12-08T17:38:19;26.55;;;19.27;;
22072;SDS011;11202;50.916;4.698;2022-12-08T17:54:12;28.05;;;18.20;;
22072;SDS011;11202;50.916;4.698;2022-12-08T18:00:03;32.22;;;20.70;;
22072;SDS011;11202;50.916;4.698;2022-12-08T18:02:39;31.83;;;20.88;;
22072;SDS011;11202;50.916;4.698;2022-12-08T18:59:01;36.65;;;21.92;;
22072;SDS011;11202;50.916;4.698;2022-12-08T19:04:54;42.20;;;22.23;;
22072;SDS011;11202;50.916;4.698;2022-12-08T19:07:20;38.70;;;23.40;;
22072;SDS011;11202;50.916;4.698;2022-12-08T19:09:46;37.90;;;22.52;;
22072;SDS011;11202;50.916;4.698;2022-12-08T19:15:45;40.70;;;23.45;;
22072;SDS011;11202;50.916;4.698;2022-12-08T19:21:41;41.97;;;23.75;;
22072;SDS011;11202;50.916;4.698;2022-12-08T19:27:39;47.85;;;27.45;;
22072;SDS011;11202;50.916;4.698;2022-12-08T19:43:01;53.05;;;28.67;;
22072;SDS011;11202;50.916;4.698;2022-12-08T19:45:45;50.60;;;27.25;;
22072;SDS011;11202;50.916;4.698;2022-12-08T19:48:11;49.10;;;26.52;;
22072;SDS011;11202;50.916;4.698;2022-12-08T19:50:38;51.20;;;28.30;;
22072;SDS011;11202;50.916;4.698;2022-12-08T19:53:05;46.08;;;27.55;;
22072;SDS011;11202;50.916;4.698;2022-12-08T19:58:59;48.40;;;26.88;;
22072;SDS011;11202;50.916;4.698;2022-12-08T20:01:27;49.97;;;26.65;;
22072;SDS011;11202;50.916;4.698;2022-12-08T20:03:52;49.35;;;26.45;;
22072;SDS011;11202;50.916;4.698;2022-12-08T20:06:18;49.47;;;26.88;;
22072;SDS011;11202;50.916;4.698;2022-12-08T20:08:44;44.22;;;26.85;;
22072;SDS011;11202;50.916;4.698;2022-12-08T20:11:09;44.03;;;25.30;;
22072;SDS011;11202;50.916;4.698;2022-12-08T20:13:35;47.65;;;25.42;;
22072;SDS011;11202;50.916;4.698;2022-12-08T20:16:09;43.83;;;26.55;;
22072;SDS011;11202;50.916;4.698;2022-12-08T20:18:38;45.60;;;26.58;;
22072;SDS011;11202;50.916;4.698;2022-12-08T20:23:34;47.95;;;24.77;;
22072;SDS011;11202;50.916;4.698;2022-12-08T20:26:07;43.35;;;25.05;;
22072;SDS011;11202;50.916;4.698;2022-12-08T20:28:35;40.65;;;24.45;;
22072;SDS011;11202;50.916;4.698;2022-12-08T20:31:04;43.25;;;25.50;;
22072;SDS011;11202;50.916;4.698;2022-12-08T20:33:30;40.55;;;23.60;;
22072;SDS011;11202;50.916;4.698;2022-12-08T20:35:59;44.70;;;24.38;;
22072;SDS011;11202;50.916;4.698;2022-12-08T20:38:26;44.03;;;25.77;;
22072;SDS011;11202;50.916;4.698;2022-12-08T20:40:53;45.05;;;26.13;;
22072;SDS011;11202;50.916;4.698;2022-12-08T20:43:20;41.40;;;25.33;;
22072;SDS011;11202;50.916;4.698;2022-12-08T20:45:48;45.22;;;27.15;;
22072;SDS011;11202;50.916;4.698;2022-12-08T20:48:17;44.35;;;24.35;;
22072;SDS011;11202;50.916;4.698;2022-12-08T20:50:42;44.83;;;25.00;;
22072;SDS011;11202;50.916;4.698;2022-12-08T20:53:13;49.30;;;25.60;;
22072;SDS011;11202;50.916;4.698;2022-12-08T20:55:40;44.05;;;26.13;;
22072;SDS011;11202;50.916;4.698;2022-12-08T20:58:06;45.17;;;24.50;;
22072;SDS011;11202;50.916;4.698;2022-12-08T21:00:32;44.22;;;23.73;;
22072;SDS011;11202;50.916;4.698;2022-12-08T21:03:00;41.70;;;23.58;;
22072;SDS011;11202;50.916;4.698;2022-12-08T21:05:26;39.40;;;24.02;;
22072;SDS011;11202;50.916;4.698;2022-12-08T21:07:55;38.47;;;24.17;;
22072;SDS011;11202;50.916;4.698;2022-12-08T21:10:32;41.28;;;23.77;;
22072;SDS011;11202;50.916;4.698;2022-12-08T21:12:58;39.83;;;23.23;;
22072;SDS011;11202;50.916;4.698;2022-12-08T21:15:26;40.13;;;23.40;;
22072;SDS011;11202;50.916;4.698;2022-12-08T21:18:09;38.20;;;21.85;;
22072;SDS011;11202;50.916;4.698;2022-12-08T21:24:17;43.42;;;22.58;;
22072;SDS011;11202;50.916;4.698;2022-12-08T22:00:24;42.55;;;23.80;;
22072;SDS011;11202;50.916;4.698;2022-12-08T22:02:50;46.65;;;25.02;;
22072;SDS011;11202;50.916;4.698;2022-12-08T22:05:16;50.95;;;24.48;;
22072;SDS011;11202;50.916;4.698;2022-12-08T22:07:41;44.85;;;23.58;;
22072;SDS011;11202;50.916;4.698;2022-12-08T22:10:07;47.45;;;24.60;;
22072;SDS011;11202;50.916;4.698;2022-12-08T22:12:34;44.97;;;23.73;;
22072;SDS011;11202;50.916;4.698;2022-12-08T22:15:00;43.22;;;23.73;;
22072;SDS011;11202;50.916;4.698;2022-12-08T22:17:29;42.23;;;23.07;;
22072;SDS011;11202;50.916;4.698;2022-12-08T22:19:57;45.78;;;22.65;;
22072;SDS011;11202;50.916;4.698;2022-12-08T22:22:25;43.25;;;23.20;;
22072;SDS011;11202;50.916;4.698;2022-12-08T22:24:52;46.42;;;25.33;;
22072;SDS011;11202;50.916;4.698;2022-12-08T22:27:18;44.80;;;23.67;;
22072;SDS011;11202;50.916;4.698;2022-12-08T22:29:52;47.97;;;23.88;;
22072;SDS011;11202;50.916;4.698;2022-12-08T22:35:41;37.45;;;22.65;;
22072;SDS011;11202;50.916;4.698;2022-12-08T22:38:06;43.20;;;23.30;;
22072;SDS011;11202;50.916;4.698;2022-12-08T22:56:26;43.13;;;24.55;;
22072;SDS011;11202;50.916;4.698;2022-12-08T22:58:51;46.60;;;25.55;;
22072;SDS011;11202;50.916;4.698;2022-12-08T23:01:21;45.83;;;24.30;;
22072;SDS011;11202;50.916;4.698;2022-12-08T23:03:51;44.88;;;23.92;;
22072;SDS011;11202;50.916;4.698;2022-12-08T23:06:17;48.10;;;25.75;;
22072;SDS011;11202;50.916;4.698;2022-12-08T23:08:43;51.25;;;24.88;;
22072;SDS011;11202;50.916;4.698;2022-12-08T23:11:23;41.85;;;24.70;;
22072;SDS011;11202;50.916;4.698;2022-12-08T23:17:25;45.15;;;26.40;;
22072;SDS011;11202;50.916;4.698;2022-12-08T23:36:38;50.40;;;26.92;;
22072;SDS011;11202;50.916;4.698;2022-12-08T23:42:33;48.97;;;26.23;;
22072;SDS011;11202;50.916;4.698;2022-12-08T23:44:58;41.85;;;26.02;;
22072;SDS011;11202;50.916;4.698;2022-12-08T23:47:24;46.63;;;26.60;;
